»·PEaware :: DAL1672 KPSC-KRDD

DAL1672 :: KPSC-KRDD

FLIGHT INFORMATION

Flight Status: Arrived
Operator:
Delta Air Lines
More flights by this operator :: More flights under this callsign
Pilot: Chuck O. (4337)
Aircraft: AIRBUS A320
(A320)
More flights by this aircraft type
Origin: KPSC Tri-Cities
United States
Destination: KRDD Redding Mun
United States
More flights between these airports :: More routes between these airports
Route: +PDT IMB J3 RBL
File this flight plan on PilotEdge
Remarks:
Altitude:
(Current/Filed)
38,000ft
Speed:
(Current/Filed)
450kts
Departed: 05-Oct-18 10:25 AM
Arrived: 05-Oct-18 11:41 AM
Distance/Time
Traveled:
371nm/1:15
Distance/Time
To Go:
Arrived

Flight Plot

Page will automatically refresh every two minutes.

Flight plan parsing failed; only flown route is shown


Map Options




Map Legend


Flown Route
Filed Route
Departure Airport
Arrival Airport
Navaid (VOR, NDB)
Fix

Horizontal Profiles

Position Reports

Time Latitude Longitude Heading Altitude Ground
Speed
05-Oct-18 09:45 46.260281 -119.114339 226 421ft 0kts
05-Oct-18 09:46 46.260281 -119.114339 226 421ft 0kts
05-Oct-18 09:47 46.260281 -119.114339 226 421ft 0kts
05-Oct-18 09:48 46.260281 -119.114339 226 421ft 0kts
05-Oct-18 09:49 46.260281 -119.114339 226 421ft 0kts
05-Oct-18 09:50 46.260281 -119.114339 226 421ft 0kts
05-Oct-18 09:51 46.260281 -119.114339 226 421ft 0kts
05-Oct-18 09:52 46.260281 -119.114339 226 421ft 0kts
05-Oct-18 09:53 46.260281 -119.114339 226 421ft 0kts
05-Oct-18 09:54 46.260281 -119.114339 226 421ft 0kts
05-Oct-18 09:55 46.260281 -119.114339 226 421ft 0kts
05-Oct-18 09:56 46.260281 -119.114339 226 421ft 0kts
05-Oct-18 09:57 46.260281 -119.114339 226 421ft 0kts
05-Oct-18 09:58 46.260281 -119.114339 226 421ft 0kts
05-Oct-18 09:59 46.260281 -119.114339 226 421ft 0kts
05-Oct-18 10:00 46.260281 -119.114339 226 421ft 0kts
05-Oct-18 10:01 46.260281 -119.114339 226 421ft 0kts
05-Oct-18 10:02 46.260281 -119.114339 226 421ft 0kts
05-Oct-18 10:03 46.260319 -119.114279 223 421ft 2kts
05-Oct-18 10:04 46.260844 -119.114224 135 421ft 2kts
05-Oct-18 10:05 46.260852 -119.114235 135 421ft 0kts
05-Oct-18 10:06 46.260851 -119.114235 135 421ft 0kts
05-Oct-18 10:07 46.260851 -119.114234 135 421ft 0kts
05-Oct-18 10:08 46.260851 -119.114234 135 421ft 0kts
05-Oct-18 10:09 46.260851 -119.114234 135 421ft 0kts
05-Oct-18 10:10 46.260851 -119.114233 135 421ft 0kts
05-Oct-18 10:11 46.260046 -119.113125 135 421ft 20kts
05-Oct-18 10:12 46.257777 -119.106836 45 421ft 22kts
05-Oct-18 10:13 46.262491 -119.106622 339 421ft 25kts
05-Oct-18 10:14 46.268347 -119.108891 325 421ft 0kts
05-Oct-18 10:15 46.268929 -119.109582 312 421ft 11kts
05-Oct-18 10:16 46.269760 -119.110776 316 421ft 0kts
05-Oct-18 10:17 46.269760 -119.110777 316 421ft 0kts
05-Oct-18 10:18 46.269760 -119.110777 316 421ft 0kts
05-Oct-18 10:19 46.269760 -119.110777 316 421ft 0kts
05-Oct-18 10:20 46.269761 -119.110777 316 421ft 0kts
05-Oct-18 10:21 46.269761 -119.110778 316 421ft 0kts
05-Oct-18 10:22 46.269761 -119.110778 316 421ft 0kts
05-Oct-18 10:24 46.269762 -119.110779 316 421ft 0kts
05-Oct-18 10:25 46.269762 -119.110779 316 421ft 0kts
05-Oct-18 10:26 46.270302 -119.112338 239 421ft 16kts
05-Oct-18 10:27 46.260215 -119.127176 226 505ft 161kts
05-Oct-18 10:28 46.216198 -119.182250 216 3301ft 244kts
05-Oct-18 10:29 46.156661 -119.233935 189 6965ft 265kts
05-Oct-18 10:30 46.082970 -119.199081 156 9883ft 292kts
05-Oct-18 10:31 46.003139 -119.144385 157 9991ft 330kts
05-Oct-18 10:32 45.918724 -119.087238 157 12358ft 340kts
05-Oct-18 10:33 45.830186 -119.027596 158 15000ft 363kts
05-Oct-18 10:34 45.737911 -118.965569 160 17313ft 382kts
05-Oct-18 10:35 45.638157 -118.981478 213 19479ft 373kts
05-Oct-18 10:36 45.545131 -119.053781 211 21487ft 388kts
05-Oct-18 10:37 45.449511 -119.124503 212 23327ft 399kts
05-Oct-18 10:38 45.350349 -119.198296 211 25053ft 409kts
05-Oct-18 10:39 45.248345 -119.273687 212 26689ft 417kts
05-Oct-18 10:40 45.144661 -119.349990 212 28176ft 424kts
05-Oct-18 10:41 45.040067 -119.426813 212 29517ft 430kts
05-Oct-18 10:42 44.933941 -119.504364 212 30729ft 437kts
05-Oct-18 10:43 44.825693 -119.583139 212 31948ft 440kts
05-Oct-18 10:44 44.717506 -119.661480 212 33379ft 436kts
05-Oct-18 10:45 44.606077 -119.728893 201 34576ft 444kts
05-Oct-18 10:46 44.486096 -119.772787 201 35540ft 445kts
05-Oct-18 10:47 44.366762 -119.818759 201 36395ft 446kts
05-Oct-18 10:48 44.247579 -119.863748 201 37125ft 447kts
05-Oct-18 10:49 44.127295 -119.909107 201 37751ft 447kts
05-Oct-18 10:50 44.006951 -119.954347 202 38195ft 451kts
05-Oct-18 10:51 43.885550 -119.999552 202 38189ft 448kts
05-Oct-18 10:52 43.765012 -120.044524 201 38191ft 449kts
05-Oct-18 10:53 43.644391 -120.089229 202 38195ft 449kts
05-Oct-18 10:54 43.523822 -120.133710 202 38201ft 449kts
05-Oct-18 10:55 43.402946 -120.178152 202 38204ft 449kts
05-Oct-18 10:56 43.282141 -120.222355 202 38159ft 450kts
05-Oct-18 10:57 43.160993 -120.266566 202 38163ft 451kts
05-Oct-18 10:58 43.039327 -120.310693 202 38169ft 451kts
05-Oct-18 10:59 42.917955 -120.354544 202 38183ft 451kts
05-Oct-18 11:00 42.796491 -120.398285 202 38194ft 451kts
05-Oct-18 11:01 42.674926 -120.441878 202 38208ft 452kts
05-Oct-18 11:02 42.553636 -120.485210 202 38226ft 452kts
05-Oct-18 11:03 42.438808 -120.545981 217 38189ft 438kts
05-Oct-18 11:04 42.332617 -120.627731 215 38244ft 439kts
05-Oct-18 11:05 42.225643 -120.707204 216 38282ft 438kts
05-Oct-18 11:06 42.119021 -120.786685 216 38282ft 440kts
05-Oct-18 11:07 42.011807 -120.866257 216 38264ft 441kts
05-Oct-18 11:08 41.903995 -120.945911 216 38264ft 441kts
05-Oct-18 11:09 41.796488 -121.025068 216 38264ft 441kts
05-Oct-18 11:10 41.689075 -121.103841 216 38265ft 441kts
05-Oct-18 11:11 41.581144 -121.182728 216 37877ft 439kts
05-Oct-18 11:12 41.474570 -121.260252 216 35521ft 435kts
05-Oct-18 11:13 41.369614 -121.336449 216 32942ft 436kts
05-Oct-18 11:14 41.266289 -121.410945 215 30606ft 428kts
05-Oct-18 11:15 41.162631 -121.485612 215 28198ft 419kts
05-Oct-18 11:16 41.061278 -121.558268 214 25814ft 409kts
05-Oct-18 11:17 40.963406 -121.628324 214 23531ft 399kts
05-Oct-18 11:18 40.868455 -121.695935 214 21382ft 382kts
05-Oct-18 11:19 40.776723 -121.761104 214 19327ft 372kts
05-Oct-18 11:20 40.688180 -121.823683 213 17364ft 361kts
05-Oct-18 11:21 40.598901 -121.886784 213 15539ft 353kts
05-Oct-18 11:22 40.518013 -121.943507 214 14379ft 302kts
05-Oct-18 11:23 40.448115 -121.992760 214 13611ft 264kts
05-Oct-18 11:24 40.386188 -122.036194 213 12629ft 237kts
05-Oct-18 11:25 40.320240 -122.054189 192 11936ft 243kts
05-Oct-18 11:26 40.255933 -122.063502 190 10679ft 236kts
05-Oct-18 11:27 40.191607 -122.074603 190 9377ft 229kts
05-Oct-18 11:28 40.129642 -122.087327 190 8028ft 224kts
05-Oct-18 11:29 40.068086 -122.100874 190 6530ft 223kts
05-Oct-18 11:30 40.019880 -122.136340 260 5396ft 202kts
05-Oct-18 11:31 40.049358 -122.190834 326 4839ft 196kts
05-Oct-18 11:32 40.096816 -122.223646 337 4022ft 189kts
05-Oct-18 11:33 40.143524 -122.250210 336 3038ft 179kts
05-Oct-18 11:34 40.189486 -122.276397 336 3006ft 179kts
05-Oct-18 11:35 40.238824 -122.284789 359 3081ft 198kts
05-Oct-18 11:36 40.290921 -122.289250 350 3034ft 161kts
05-Oct-18 11:37 40.328627 -122.295319 0 3017ft 137kts
05-Oct-18 11:38 40.366602 -122.295150 359 3006ft 137kts
05-Oct-18 11:39 40.404705 -122.295091 359 2395ft 135kts
05-Oct-18 11:40 40.441491 -122.295024 359 1694ft 134kts
05-Oct-18 11:41 40.478617 -122.294970 359 985ft 133kts
05-Oct-18 11:42 40.514888 -122.294911 0 451ft 105kts
05-Oct-18 11:43 40.519488 -122.295071 319 456ft 4kts

Navigation Log

Ident Type
Flight plan parsing failed, navigation log unavailable